Western King — CY7367 — position and weather

sailwx.info

Track history (hours):
 
Tides and Currents Weather Stations Pressure Air Temp Water Temp Dewpoint Dewpoint Depression Visibility Wind Speed Wind Dir Waves Ship Positions

Western King

Last reported at 2017-Mar-29 02:30 UTC. Time now 2017-Mar-29 09:22 UTC.
Position N 50°43' W 127°29'.

Length 23 m; draft 3.8 m.

Type: Fishing. MMSI: 316003779.

Date/timePositionNaut miles runAvg speedWind from/ knotsBaromVisibWave heightAir tempDewpointWater temp
2017-Mar-29 02:30N 50°43' W 127°29'0 0.0
2017-Mar-28 19:08N 50°43' W 127°29'0 0.0
2017-Mar-28 16:10N 50°43' W 127°29'0 0.0
2017-Mar-28 14:26N 50°43' W 127°29'0 0.0
2017-Mar-28 13:32N 50°43' W 127°29'0 0.0
2017-Mar-28 12:26N 50°43' W 127°29'0 0.0
2017-Mar-28 09:28N 50°43' W 127°29'0 0.0
2017-Mar-28 05:22N 50°43' W 127°29'0 0.0
2017-Mar-27 21:26N 50°43' W 127°29'0 0.0
2017-Mar-27 20:33N 50°43' W 127°29'0 0.0
2017-Mar-27 19:32N 50°43' W 127°29'0 0.0
2017-Mar-27 18:05N 50°43' W 127°29'0 0.0
2017-Mar-27 17:25N 50°43' W 127°29'0 0.0
2017-Mar-27 16:20N 50°43' W 127°29'0 0.0
2017-Mar-27 15:33N 50°43' W 127°29'0 0.0
2017-Mar-27 14:32N 50°43' W 127°29'0 0.0
2017-Mar-27 12:21N 50°43' W 127°29'0 0.0
2017-Mar-27 11:33N 50°43' W 127°29'0 0.0
2017-Mar-27 10:12N 50°43' W 127°29'0 0.0
2017-Mar-27 00:20N 50°43' W 127°29'0 0.0
2017-Mar-26 23:27N 50°43' W 127°29'0 0.0
2017-Mar-26 22:12N 50°43' W 127°29'0 0.0
2017-Mar-26 21:29N 50°43' W 127°29'0 0.0
2017-Mar-26 20:33N 50°43' W 127°29'0 0.0
2017-Mar-26 19:31N 50°43' W 127°29'0 0.0
2017-Mar-26 18:32N 50°43' W 127°29'0 0.0
2017-Mar-26 17:32N 50°43' W 127°29'0 0.0
2017-Mar-26 16:33N 50°43' W 127°29'0 0.0
2017-Mar-26 15:33N 50°43' W 127°29'0 0.0
2017-Mar-26 14:30N 50°43' W 127°29'0 0.0
2017-Mar-26 13:33N 50°43' W 127°29'0 0.0
2017-Mar-26 12:33N 50°43' W 127°29'0 0.0
2017-Mar-26 11:32N 50°43' W 127°29'0 0.0
2017-Mar-26 10:33N 50°43' W 127°29'0 0.0
2017-Mar-26 09:33N 50°43' W 127°29'0 0.0
2017-Mar-26 08:33N 50°43' W 127°29'0 0.0
2017-Mar-26 07:32N 50°43' W 127°29'0 0.0
2017-Mar-26 06:33N 50°43' W 127°29'0 0.0
2017-Mar-26 05:32N 50°43' W 127°29'0 0.0
2017-Mar-26 04:33N 50°43' W 127°29'0 0.0
2017-Mar-26 03:32N 50°43' W 127°29'0 0.0
2017-Mar-26 02:33N 50°43' W 127°29'0 0.0
2017-Mar-26 01:32N 50°43' W 127°29'0 0.0
2017-Mar-26 00:33N 50°43' W 127°29'0 0.0
2017-Mar-25 23:33N 50°43' W 127°29'0 0.0
2017-Mar-25 22:28N 50°43' W 127°29'0 0.0
2017-Mar-25 21:34N 50°43' W 127°29'0 0.3
2017-Mar-25 20:33N 50°43' W 127°29'0 0.0
2017-Mar-25 19:34N 50°43' W 127°29'0 0.0
2017-Mar-25 18:34N 50°43' W 127°29'0 0.0
2017-Mar-25 17:33N 50°43' W 127°29'0 0.0
2017-Mar-25 16:33N 50°43' W 127°29'0 0.0
2017-Mar-25 15:33N 50°43' W 127°29'0 0.0
2017-Mar-25 14:33N 50°43' W 127°29'0 0.0
2017-Mar-25 13:33N 50°43' W 127°29'0 0.0
2017-Mar-25 12:33N 50°43' W 127°29'0 0.0
2017-Mar-25 11:33N 50°43' W 127°29'0 0.0
2017-Mar-25 10:33N 50°43' W 127°29'2 2.2
2017-Mar-25 09:33N 50°45' W 127°29'7 7.3
2017-Mar-25 08:33N 50°50' W 127°36'9 9.3
2017-Mar-25 07:33N 50°58' W 127°44'8 8.3
2017-Mar-25 06:32N 51°06' W 127°48'21 6.5
2017-Mar-25 03:18N 51°27' W 127°51'5 6.6
2017-Mar-25 02:33N 51°32' W 127°53'  
Track history (hours):
 
Tides and Currents Weather Stations Pressure Air Temp Water Temp Dewpoint Dewpoint Depression Visibility Wind Speed Wind Dir Waves Ship Positions

Western King

Last reported at 2017-Mar-29 02:30 UTC. Time now 2017-Mar-29 09:22 UTC.
Position N 50°43' W 127°29'.

Length 23 m; draft 3.8 m.

Type: Fishing. MMSI: 316003779.

Date/timePositionNaut miles runAvg speedWind from/ knotsBaromVisibWave heightAir tempDewpointWater temp
2017-Mar-29 02:30N 50°43' W 127°29'0 0.0
2017-Mar-28 19:08N 50°43' W 127°29'0 0.0
2017-Mar-28 16:10N 50°43' W 127°29'0 0.0
2017-Mar-28 14:26N 50°43' W 127°29'0 0.0
2017-Mar-28 13:32N 50°43' W 127°29'0 0.0
2017-Mar-28 12:26N 50°43' W 127°29'0 0.0
2017-Mar-28 09:28N 50°43' W 127°29'0 0.0
2017-Mar-28 05:22N 50°43' W 127°29'0 0.0
2017-Mar-27 21:26N 50°43' W 127°29'0 0.0
2017-Mar-27 20:33N 50°43' W 127°29'0 0.0
2017-Mar-27 19:32N 50°43' W 127°29'0 0.0
2017-Mar-27 18:05N 50°43' W 127°29'0 0.0
2017-Mar-27 17:25N 50°43' W 127°29'0 0.0
2017-Mar-27 16:20N 50°43' W 127°29'0 0.0
2017-Mar-27 15:33N 50°43' W 127°29'0 0.0
2017-Mar-27 14:32N 50°43' W 127°29'0 0.0
2017-Mar-27 12:21N 50°43' W 127°29'0 0.0
2017-Mar-27 11:33N 50°43' W 127°29'0 0.0
2017-Mar-27 10:12N 50°43' W 127°29'0 0.0
2017-Mar-27 00:20N 50°43' W 127°29'0 0.0
2017-Mar-26 23:27N 50°43' W 127°29'0 0.0
2017-Mar-26 22:12N 50°43' W 127°29'0 0.0
2017-Mar-26 21:29N 50°43' W 127°29'0 0.0
2017-Mar-26 20:33N 50°43' W 127°29'0 0.0
2017-Mar-26 19:31N 50°43' W 127°29'0 0.0
2017-Mar-26 18:32N 50°43' W 127°29'0 0.0
2017-Mar-26 17:32N 50°43' W 127°29'0 0.0
2017-Mar-26 16:33N 50°43' W 127°29'0 0.0
2017-Mar-26 15:33N 50°43' W 127°29'0 0.0
2017-Mar-26 14:30N 50°43' W 127°29'0 0.0
2017-Mar-26 13:33N 50°43' W 127°29'0 0.0
2017-Mar-26 12:33N 50°43' W 127°29'0 0.0
2017-Mar-26 11:32N 50°43' W 127°29'0 0.0
2017-Mar-26 10:33N 50°43' W 127°29'0 0.0
2017-Mar-26 09:33N 50°43' W 127°29'0 0.0
2017-Mar-26 08:33N 50°43' W 127°29'0 0.0
2017-Mar-26 07:32N 50°43' W 127°29'0 0.0
2017-Mar-26 06:33N 50°43' W 127°29'0 0.0
2017-Mar-26 05:32N 50°43' W 127°29'0 0.0
2017-Mar-26 04:33N 50°43' W 127°29'0 0.0
2017-Mar-26 03:32N 50°43' W 127°29'0 0.0
2017-Mar-26 02:33N 50°43' W 127°29'0 0.0
2017-Mar-26 01:32N 50°43' W 127°29'0 0.0
2017-Mar-26 00:33N 50°43' W 127°29'0 0.0
2017-Mar-25 23:33N 50°43' W 127°29'0 0.0
2017-Mar-25 22:28N 50°43' W 127°29'0 0.0
2017-Mar-25 21:34N 50°43' W 127°29'0 0.3
2017-Mar-25 20:33N 50°43' W 127°29'0 0.0
2017-Mar-25 19:34N 50°43' W 127°29'0 0.0
2017-Mar-25 18:34N 50°43' W 127°29'0 0.0
2017-Mar-25 17:33N 50°43' W 127°29'0 0.0
2017-Mar-25 16:33N 50°43' W 127°29'0 0.0
2017-Mar-25 15:33N 50°43' W 127°29'0 0.0
2017-Mar-25 14:33N 50°43' W 127°29'0 0.0
2017-Mar-25 13:33N 50°43' W 127°29'0 0.0
2017-Mar-25 12:33N 50°43' W 127°29'0 0.0
2017-Mar-25 11:33N 50°43' W 127°29'0 0.0
2017-Mar-25 10:33N 50°43' W 127°29'2 2.2
2017-Mar-25 09:33N 50°45' W 127°29'7 7.3
2017-Mar-25 08:33N 50°50' W 127°36'9 9.3
2017-Mar-25 07:33N 50°58' W 127°44'8 8.3
2017-Mar-25 06:32N 51°06' W 127°48'21 6.5
2017-Mar-25 03:18N 51°27' W 127°51'5 6.6
2017-Mar-25 02:33N 51°32' W 127°53'  

Dump ship's entire track history